createdAt,value
2016-02-05T00:00:01.868Z,999.46
2016-02-05T00:01:01.856Z,999.46
2016-02-05T00:02:01.842Z,999.49
2016-02-05T00:03:01.845Z,999.49
2016-02-05T00:04:01.847Z,999.49
2016-02-05T00:05:01.851Z,999.53
2016-02-05T00:06:01.853Z,999.52
2016-02-05T00:07:01.872Z,999.57
2016-02-05T00:08:01.844Z,999.55
2016-02-05T00:09:01.846Z,999.55
2016-02-05T00:10:01.850Z,999.55
2016-02-05T00:11:01.837Z,999.52
2016-02-05T00:12:01.839Z,999.53
2016-02-05T00:13:01.842Z,999.5
2016-02-05T00:14:01.830Z,999.54
2016-02-05T00:15:01.868Z,999.6
2016-02-05T00:16:01.839Z,999.57
2016-02-05T00:17:01.827Z,999.57
2016-02-05T00:18:01.831Z,999.6
2016-02-05T00:19:01.833Z,999.6
2016-02-05T00:20:01.836Z,999.61
2016-02-05T00:21:01.823Z,999.58
2016-02-05T00:22:01.825Z,999.65
2016-02-05T00:23:01.829Z,999.67
2016-02-05T00:24:01.831Z,999.67
2016-02-05T00:25:01.823Z,999.7
2016-02-05T00:26:01.826Z,999.71
2016-02-05T00:27:01.829Z,999.74
2016-02-05T00:28:01.816Z,999.79
2016-02-05T00:29:01.819Z,999.87
2016-02-05T00:30:01.843Z,999.88
2016-02-05T00:31:01.831Z,999.88
2016-02-05T00:32:01.822Z,999.89
2016-02-05T00:33:01.810Z,999.89
2016-02-05T00:34:01.813Z,999.95
2016-02-05T00:35:01.815Z,999.96
2016-02-05T00:36:01.844Z,999.97
2016-02-05T00:37:01.814Z,999.94
2016-02-05T00:38:01.817Z,999.92
2016-02-05T00:39:01.820Z,999.94
2016-02-05T00:40:01.808Z,999.94
2016-02-05T00:41:01.810Z,999.96
2016-02-05T00:42:01.813Z,999.98
2016-02-05T00:43:01.805Z,1000.04
2016-02-05T00:44:01.809Z,999.99
2016-02-05T00:45:01.828Z,999.99
2016-02-05T00:46:01.798Z,1000.01
2016-02-05T00:47:01.801Z,999.99
2016-02-05T00:48:01.804Z,999.97
2016-02-05T00:49:01.807Z,999.96
2016-02-05T00:50:01.809Z,999.96
2016-02-05T00:51:01.812Z,999.99
2016-02-05T00:52:01.800Z,1000.01
2016-02-05T00:53:01.803Z,999.99
2016-02-05T00:54:01.805Z,1000.06
2016-02-05T00:55:01.794Z,1000.05
2016-02-05T00:56:01.814Z,1000.03
2016-02-05T00:57:01.801Z,1000.08
2016-02-05T00:58:01.807Z,1000.07
2016-02-05T00:59:01.825Z,1000.07
2016-02-05T01:00:01.796Z,1000.12
2016-02-05T01:01:01.799Z,1000.1
2016-02-05T01:02:01.802Z,1000.09
2016-02-05T01:03:01.804Z,1000.11
2016-02-05T01:04:01.807Z,1000.13
2016-02-05T01:05:01.795Z,1000.11
2016-02-05T01:06:01.798Z,1000.12
2016-02-05T01:07:01.784Z,1000.07
2016-02-05T01:08:01.788Z,1000.1
2016-02-05T01:09:01.791Z,1000.11
2016-02-05T01:10:01.793Z,1000.11
2016-02-05T01:11:01.796Z,1000.11
2016-02-05T01:12:01.798Z,1000.12
2016-02-05T01:13:01.787Z,1000.12
2016-02-05T01:14:01.789Z,1000.1
2016-02-05T01:15:01.792Z,1000.15
2016-02-05T01:16:01.779Z,1000.2
2016-02-05T01:17:01.782Z,1000.26
2016-02-05T01:18:01.773Z,1000.24
2016-02-05T01:19:01.776Z,1000.25
2016-02-05T01:20:01.778Z,1000.26
2016-02-05T01:21:01.796Z,1000.27
2016-02-05T01:22:01.784Z,1000.29
2016-02-05T01:23:01.770Z,1000.26
2016-02-05T01:24:01.773Z,1000.28
2016-02-05T01:25:01.775Z,1000.31
2016-02-05T01:26:01.779Z,1000.29
2016-02-05T01:27:01.797Z,1000.31
2016-02-05T01:28:01.774Z,1000.34
2016-02-05T01:29:01.776Z,1000.31
2016-02-05T01:30:01.779Z,1000.35
2016-02-05T01:31:01.766Z,1000.37
2016-02-05T01:32:01.784Z,1000.42
2016-02-05T01:33:01.771Z,1000.42
2016-02-05T01:34:01.774Z,1000.4
2016-02-05T01:35:01.765Z,1000.42
2016-02-05T01:36:01.783Z,1000.41
2016-02-05T01:37:01.770Z,1000.41
2016-02-05T01:38:01.758Z,1000.45
2016-02-05T01:39:01.761Z,1000.46
2016-02-05T01:40:01.763Z,1000.49
2016-02-05T01:41:01.766Z,1000.43
2016-02-05T01:42:01.752Z,1000.45
2016-02-05T01:43:01.755Z,1000.48
2016-02-05T01:44:01.758Z,1000.45
2016-02-05T01:45:01.760Z,1000.47
2016-02-05T01:46:01.747Z,1000.48
2016-02-05T01:47:01.765Z,1000.47
2016-02-05T01:48:01.770Z,1000.48
2016-02-05T01:49:01.756Z,1000.47
2016-02-05T01:50:01.744Z,1000.49
2016-02-05T01:51:01.746Z,1000.53
2016-02-05T01:52:01.749Z,1000.52
2016-02-05T01:53:01.756Z,1000.57
2016-02-05T01:54:01.742Z,1000.57
2016-02-05T01:55:01.779Z,1000.52
2016-02-05T01:56:01.751Z,1000.52
2016-02-05T01:57:01.738Z,1000.5
2016-02-05T01:58:01.741Z,1000.51
2016-02-05T01:59:01.736Z,1000.54
2016-02-05T02:00:01.739Z,1000.52
2016-02-05T02:01:01.742Z,1000.55
2016-02-05T02:02:01.744Z,1000.51
2016-02-05T02:03:01.731Z,1000.56
2016-02-05T02:04:01.739Z,1000.56
2016-02-05T02:05:01.742Z,1000.53
2016-02-05T02:06:01.728Z,1000.56
2016-02-05T02:07:01.746Z,1000.53
2016-02-05T02:08:01.734Z,1000.53
2016-02-05T02:09:01.737Z,1000.54
2016-02-05T02:10:01.740Z,1000.55
2016-02-05T02:11:01.728Z,1000.57
2016-02-05T02:12:01.730Z,1000.53
2016-02-05T02:13:01.733Z,1000.54
2016-02-05T02:14:01.751Z,1000.58
2016-02-05T02:15:01.738Z,1000.56
2016-02-05T02:16:01.726Z,1000.58
2016-02-05T02:17:01.728Z,1000.59
2016-02-05T02:18:01.731Z,1000.54
2016-02-05T02:19:01.734Z,1000.57
2016-02-05T02:20:01.736Z,1000.53
2016-02-05T02:21:01.725Z,1000.57
2016-02-05T02:22:01.728Z,1000.55
2016-02-05T02:23:01.731Z,1000.56
2016-02-05T02:24:01.719Z,1000.56
2016-02-05T02:25:01.721Z,1000.57
2016-02-05T02:26:01.724Z,1000.57
2016-02-05T02:27:01.727Z,1000.53
2016-02-05T02:28:01.732Z,1000.56
2016-02-05T02:29:01.734Z,1000.54
2016-02-05T02:30:01.721Z,1000.59
2016-02-05T02:31:01.729Z,1000.54
2016-02-05T02:32:01.747Z,1000.56
2016-02-05T02:33:01.718Z,1000.58
2016-02-05T02:34:01.738Z,1000.57
2016-02-05T02:35:01.724Z,1000.58
2016-02-05T02:36:01.727Z,1000.58
2016-02-05T02:37:01.729Z,1000.56
2016-02-05T02:38:01.717Z,1000.52
2016-02-05T02:39:01.720Z,1000.57
2016-02-05T02:40:01.723Z,1000.55
2016-02-05T02:41:01.710Z,1000.54
2016-02-05T02:42:01.712Z,1000.53
2016-02-05T02:43:01.716Z,1000.59
2016-02-05T02:44:01.708Z,1000.54
2016-02-05T02:45:01.710Z,1000.52
2016-02-05T02:46:01.712Z,1000.54
2016-02-05T02:47:01.699Z,1000.56
2016-02-05T02:48:01.702Z,1000.57
2016-02-05T02:49:01.704Z,1000.54
2016-02-05T02:50:01.723Z,1000.6
2016-02-05T02:51:01.710Z,1000.61
2016-02-05T02:52:01.713Z,1000.6
2016-02-05T02:53:01.703Z,1000.6
2016-02-05T02:54:01.706Z,1000.6
2016-02-05T02:55:01.692Z,1000.59
2016-02-05T02:56:01.711Z,1000.61
2016-02-05T02:57:01.683Z,1000.57
2016-02-05T02:58:01.687Z,1000.61
2016-02-05T02:59:01.705Z,1000.59
2016-02-05T03:00:01.692Z,1000.65
2016-02-05T03:01:01.698Z,1000.67
2016-02-05T03:02:01.685Z,1000.69
2016-02-05T03:03:01.688Z,1000.69
2016-02-05T03:04:01.691Z,1000.7
2016-02-05T03:05:01.694Z,1000.73
2016-02-05T03:06:01.681Z,1000.71
2016-02-05T03:07:01.684Z,1000.73
2016-02-05T03:08:01.686Z,1000.73
2016-02-05T03:09:01.690Z,1000.74
2016-02-05T03:10:01.692Z,1000.75
2016-02-05T03:11:01.680Z,1000.74
2016-02-05T03:12:01.697Z,1000.76
2016-02-05T03:13:01.670Z,1000.79
2016-02-05T03:14:01.677Z,1000.77
2016-02-05T03:15:01.695Z,1000.73
2016-02-05T03:16:01.685Z,1000.78
2016-02-05T03:17:01.672Z,1000.78
2016-02-05T03:18:01.691Z,1000.79
2016-02-05T03:19:01.677Z,1000.82
2016-02-05T03:20:01.683Z,1000.84
2016-02-05T03:21:01.734Z,1000.84
2016-02-05T03:22:01.784Z,1000.85
2016-02-05T03:23:01.692Z,1000.89
2016-02-05T03:24:01.726Z,1000.91
2016-02-05T03:25:01.822Z,1000.93
2016-02-05T03:26:01.654Z,1000.95
2016-02-05T03:27:01.673Z,1000.95
2016-02-05T03:28:01.738Z,1000.99
2016-02-05T03:29:01.662Z,1000.99
2016-02-05T03:30:01.665Z,1000.99
2016-02-05T03:31:01.742Z,1001
2016-02-05T03:32:01.730Z,1000.98
2016-02-05T03:33:01.654Z,1000.99
2016-02-05T03:34:01.702Z,1000.99
2016-02-05T03:35:01.659Z,1001.04
2016-02-05T03:36:01.662Z,1001.04
2016-02-05T03:37:01.665Z,1001.11
2016-02-05T03:38:01.653Z,1001.11
2016-02-05T03:39:01.703Z,1001.1
2016-02-05T03:40:01.705Z,1001.05
2016-02-05T03:41:01.740Z,1001.07
2016-02-05T03:42:01.648Z,1001.02
2016-02-05T03:43:01.651Z,1001.01
2016-02-05T03:44:01.654Z,1001.06
2016-02-05T03:45:01.641Z,1001.12
2016-02-05T03:46:01.646Z,1001.1
2016-02-05T03:47:01.648Z,1001.06
2016-02-05T03:48:01.652Z,1001.12
2016-02-05T03:49:01.638Z,1001.08
2016-02-05T03:50:01.641Z,1001.15
2016-02-05T03:51:01.643Z,1001.19
2016-02-05T03:52:01.647Z,1001.25
2016-02-05T03:53:01.633Z,1001.28
2016-02-05T03:54:01.651Z,1001.25
2016-02-05T03:55:01.639Z,1001.27
2016-02-05T03:56:01.640Z,1001.24
2016-02-05T03:57:01.644Z,1001.27
2016-02-05T03:58:01.635Z,1001.23
2016-02-05T03:59:01.637Z,1001.23
2016-02-05T04:00:01.630Z,1001.3
2016-02-05T04:01:01.633Z,1001.33
2016-02-05T04:02:01.636Z,1001.37
2016-02-05T04:03:01.639Z,1001.34
2016-02-05T04:04:01.625Z,1001.32
2016-02-05T04:05:01.629Z,1001.34
2016-02-05T04:06:01.650Z,1001.32
2016-02-05T04:07:01.637Z,1001.37
2016-02-05T04:08:01.655Z,1001.43
2016-02-05T04:09:01.627Z,1001.43
2016-02-05T04:10:01.630Z,1001.42
2016-02-05T04:11:01.632Z,1001.45
2016-02-05T04:12:01.619Z,1001.46
2016-02-05T04:13:01.638Z,1001.46
2016-02-05T04:14:01.624Z,1001.47
2016-02-05T04:15:01.627Z,1001.46
2016-02-05T04:16:01.630Z,1001.54
2016-02-05T04:17:01.648Z,1001.54
2016-02-05T04:18:01.635Z,1001.52
2016-02-05T04:19:01.669Z,1001.54
2016-02-05T04:20:01.673Z,1001.55
2016-02-05T04:21:01.660Z,1001.54
2016-02-05T04:22:01.647Z,1001.58
2016-02-05T04:23:01.655Z,1001.6
2016-02-05T04:24:01.674Z,1001.58
2016-02-05T04:25:01.661Z,1001.55
2016-02-05T04:26:01.663Z,1001.6
2016-02-05T04:27:01.666Z,1001.6
2016-02-05T04:28:01.621Z,1001.6
2016-02-05T04:29:01.625Z,1001.6
2016-02-05T04:30:01.625Z,1001.69
2016-02-05T04:31:01.612Z,1001.64
2016-02-05T04:32:01.647Z,1001.63
2016-02-05T04:33:01.611Z,1001.64
2016-02-05T04:34:01.606Z,1001.69
2016-02-05T04:35:01.600Z,1001.74
2016-02-05T04:36:01.580Z,1001.73
2016-02-05T04:37:01.606Z,1001.72
2016-02-05T04:38:01.621Z,1001.69
2016-02-05T04:39:01.574Z,1001.68
2016-02-05T04:40:01.574Z,1001.62
2016-02-05T04:41:01.559Z,1001.63
2016-02-05T04:42:01.559Z,1001.63
2016-02-05T04:43:01.560Z,1001.69
2016-02-05T04:44:01.562Z,1001.7
2016-02-05T04:45:01.547Z,1001.72
2016-02-05T04:46:01.549Z,1001.7
2016-02-05T04:47:01.550Z,1001.7
2016-02-05T04:48:01.552Z,1001.72
2016-02-05T04:49:01.540Z,1001.73
2016-02-05T04:50:01.542Z,1001.74
2016-02-05T04:51:01.546Z,1001.72
2016-02-05T04:52:01.548Z,1001.71
2016-02-05T04:53:01.566Z,1001.72
2016-02-05T04:54:01.538Z,1001.73
2016-02-05T04:55:01.540Z,1001.72
2016-02-05T04:56:01.547Z,1001.72
2016-02-05T04:57:01.534Z,1001.71
2016-02-05T04:58:01.536Z,1001.71
2016-02-05T04:59:01.540Z,1001.69
2016-02-05T05:00:01.545Z,1001.68
2016-02-05T05:01:01.532Z,1001.69
2016-02-05T05:02:01.535Z,1001.71
2016-02-05T05:03:01.537Z,1001.68
2016-02-05T05:04:01.559Z,1001.71
2016-02-05T05:05:01.530Z,1001.72
2016-02-05T05:06:01.548Z,1001.72
2016-02-05T05:07:01.535Z,1001.68
2016-02-05T05:08:01.555Z,1001.71
2016-02-05T05:09:01.541Z,1001.7
2016-02-05T05:10:01.543Z,1001.73
2016-02-05T05:11:01.530Z,1001.76
2016-02-05T05:12:01.549Z,1001.78
2016-02-05T05:13:01.536Z,1001.74
2016-02-05T05:14:01.538Z,1001.67
2016-02-05T05:15:01.526Z,1001.69
2016-02-05T05:16:01.544Z,1001.74
2016-02-05T05:17:01.547Z,1001.73
2016-02-05T05:18:01.535Z,1001.68
2016-02-05T05:19:01.552Z,1001.69
2016-02-05T05:20:01.524Z,1001.73
2016-02-05T05:21:01.527Z,1001.75
2016-02-05T05:22:01.530Z,1001.78
2016-02-05T05:23:01.533Z,1001.74
2016-02-05T05:24:01.536Z,1001.76
2016-02-05T05:25:01.539Z,1001.78
2016-02-05T05:26:01.526Z,1001.74
2016-02-05T05:27:01.528Z,1001.75
2016-02-05T05:28:01.531Z,1001.75
2016-02-05T05:29:01.538Z,1001.74
2016-02-05T05:30:01.528Z,1001.76
2016-02-05T05:31:01.515Z,1001.78
2016-02-05T05:32:01.518Z,1001.75
2016-02-05T05:33:01.520Z,1001.76
2016-02-05T05:34:01.539Z,1001.78
2016-02-05T05:35:01.542Z,1001.73
2016-02-05T05:36:01.517Z,1001.77
2016-02-05T05:37:01.519Z,1001.8
2016-02-05T05:38:01.522Z,1001.79
2016-02-05T05:39:01.525Z,1001.81
2016-02-05T05:40:01.513Z,1001.8
2016-02-05T05:41:01.530Z,1001.81
2016-02-05T05:42:01.517Z,1001.77
2016-02-05T05:43:01.521Z,1001.84
2016-02-05T05:44:01.508Z,1001.87
2016-02-05T05:45:01.511Z,1001.84
2016-02-05T05:46:01.513Z,1001.85
2016-02-05T05:47:01.516Z,1001.91
2016-02-05T05:48:01.503Z,1001.94
2016-02-05T05:49:01.522Z,1001.98
2016-02-05T05:50:01.509Z,1001.96
2016-02-05T05:51:01.512Z,1002.03
2016-02-05T05:52:01.499Z,1002.01
2016-02-05T05:53:01.503Z,1001.98
2016-02-05T05:54:01.505Z,1001.96
2016-02-05T05:55:01.523Z,1001.95
2016-02-05T05:56:01.510Z,1001.97
2016-02-05T05:57:01.512Z,1001.95
2016-02-05T05:58:01.516Z,1001.93
2016-02-05T05:59:01.503Z,1001.9
2016-02-05T06:00:01.506Z,1001.93
2016-02-05T06:01:01.492Z,1001.88
2016-02-05T06:02:01.512Z,1001.88
2016-02-05T06:03:01.514Z,1001.93
2016-02-05T06:04:01.501Z,1001.92
2016-02-05T06:05:01.504Z,1001.93
2016-02-05T06:06:01.506Z,1001.9
2016-02-05T06:07:01.494Z,1001.89
2016-02-05T06:08:01.497Z,1001.87
2016-02-05T06:09:01.501Z,1001.86
2016-02-05T06:10:01.503Z,1001.88
2016-02-05T06:11:01.506Z,1001.86
2016-02-05T06:12:01.508Z,1001.88
2016-02-05T06:13:01.495Z,1001.88
2016-02-05T06:14:01.498Z,1001.89
2016-02-05T06:15:01.501Z,1001.87
2016-02-05T06:16:01.488Z,1001.91
2016-02-05T06:17:01.506Z,1001.86
2016-02-05T06:18:01.495Z,1001.91
2016-02-05T06:19:01.499Z,1001.9
2016-02-05T06:20:01.485Z,1001.89
2016-02-05T06:21:01.519Z,1001.97
2016-02-05T06:22:01.494Z,1001.97
2016-02-05T06:23:01.497Z,1002
2016-02-05T06:24:01.484Z,1002.02
2016-02-05T06:25:01.486Z,1002.06
2016-02-05T06:26:01.489Z,1002
2016-02-05T06:27:01.491Z,1002.04
2016-02-05T06:28:01.511Z,1002.07
2016-02-05T06:29:01.500Z,1002.07
2016-02-05T06:30:01.481Z,1002.06
2016-02-05T06:31:01.483Z,1002.12
2016-02-05T06:32:01.470Z,1002.08
2016-02-05T06:33:01.473Z,1002.1
2016-02-05T06:34:01.476Z,1002.12
2016-02-05T06:35:01.478Z,1002.17
2016-02-05T06:36:01.497Z,1002.18
2016-02-05T06:37:01.484Z,1002.2
2016-02-05T06:38:01.470Z,1002.18
2016-02-05T06:39:01.473Z,1002.17
2016-02-05T06:40:01.476Z,1002.23
2016-02-05T06:41:01.479Z,1002.17
2016-02-05T06:42:01.467Z,1002.16
2016-02-05T06:43:01.470Z,1002.2
2016-02-05T06:44:01.472Z,1002.18
2016-02-05T06:45:01.475Z,1002.2
2016-02-05T06:46:01.478Z,1002.22
2016-02-05T06:47:01.465Z,1002.22
2016-02-05T06:48:01.467Z,1002.23
2016-02-05T06:49:01.469Z,1002.23
2016-02-05T06:50:01.457Z,1002.26
2016-02-05T06:51:01.461Z,1002.27
2016-02-05T06:52:01.463Z,1002.29
2016-02-05T06:53:01.465Z,1002.25
2016-02-05T06:54:01.453Z,1002.22
2016-02-05T06:55:01.455Z,1002.23
2016-02-05T06:56:01.459Z,1002.21
2016-02-05T06:57:01.461Z,1002.23
2016-02-05T06:58:01.448Z,1002.24
2016-02-05T06:59:01.450Z,1002.2
2016-02-05T07:00:01.451Z,1002.22
2016-02-05T07:01:01.453Z,1002.24
2016-02-05T07:02:01.456Z,1002.24
2016-02-05T07:03:01.458Z,1002.25
2016-02-05T07:04:01.462Z,1002.25
2016-02-05T07:05:01.450Z,1002.26
2016-02-05T07:06:01.453Z,1002.22
2016-02-05T07:07:01.455Z,1002.25
2016-02-05T07:08:01.458Z,1002.23
2016-02-05T07:09:01.445Z,1002.25
2016-02-05T07:10:01.448Z,1002.27
2016-02-05T07:11:01.435Z,1002.26
2016-02-05T07:12:01.437Z,1002.28
2016-02-05T07:13:01.457Z,1002.28
2016-02-05T07:14:01.443Z,1002.27
2016-02-05T07:15:01.432Z,1002.26
2016-02-05T07:16:01.449Z,1002.27
2016-02-05T07:17:01.437Z,1002.32
2016-02-05T07:18:01.440Z,1002.31
2016-02-05T07:19:01.443Z,1002.32
2016-02-05T07:20:01.445Z,1002.39
2016-02-05T07:21:01.448Z,1002.43
2016-02-05T07:22:01.473Z,1002.4
2016-02-05T07:23:01.428Z,1002.42
2016-02-05T07:24:01.431Z,1002.45
2016-02-05T07:25:01.434Z,1002.4
2016-02-05T07:26:01.422Z,1002.36
2016-02-05T07:27:01.440Z,1002.43
2016-02-05T07:28:01.428Z,1002.43
2016-02-05T07:29:01.431Z,1002.46
2016-02-05T07:30:01.419Z,1002.47
2016-02-05T07:31:01.422Z,1002.44
2016-02-05T07:32:01.425Z,1002.4
2016-02-05T07:33:01.427Z,1002.47
2016-02-05T07:34:01.430Z,1002.46
2016-02-05T07:35:01.419Z,1002.52
2016-02-05T07:36:01.422Z,1002.44
2016-02-05T07:37:01.424Z,1002.45
2016-02-05T07:38:01.412Z,1002.4
2016-02-05T07:39:01.429Z,1002.41
2016-02-05T07:40:01.418Z,1002.43
2016-02-05T07:41:01.420Z,1002.43
2016-02-05T07:42:01.423Z,1002.44
2016-02-05T07:43:01.409Z,1002.49
2016-02-05T07:44:01.411Z,1002.46
2016-02-05T07:45:01.415Z,1002.47
2016-02-05T07:46:01.434Z,1002.48
2016-02-05T07:47:01.420Z,1002.46
2016-02-05T07:48:01.422Z,1002.43
2016-02-05T07:49:01.409Z,1002.44
2016-02-05T07:50:01.412Z,1002.45
2016-02-05T07:51:01.430Z,1002.47
2016-02-05T07:52:01.417Z,1002.48
2016-02-05T07:53:01.420Z,1002.43
2016-02-05T07:54:01.422Z,1002.43
2016-02-05T07:55:01.413Z,1002.4
2016-02-05T07:56:01.415Z,1002.4
2016-02-05T07:57:01.418Z,1002.43
2016-02-05T07:58:01.420Z,1002.44
2016-02-05T07:59:01.438Z,1002.45
2016-02-05T08:00:01.426Z,1002.42
2016-02-05T08:01:01.418Z,1002.37
2016-02-05T08:02:01.424Z,1002.39
2016-02-05T08:03:01.427Z,1002.38
2016-02-05T08:04:01.430Z,1002.39
2016-02-05T08:05:01.417Z,1002.43
2016-02-05T08:06:01.435Z,1002.44
2016-02-05T08:07:01.421Z,1002.49
2016-02-05T08:08:01.411Z,1002.47
2016-02-05T08:09:01.413Z,1002.5
2016-02-05T08:10:01.416Z,1002.51
2016-02-05T08:11:01.402Z,1002.52
2016-02-05T08:12:01.421Z,1002.5
2016-02-05T08:13:01.408Z,1002.49
2016-02-05T08:14:01.410Z,1002.48
2016-02-05T08:15:01.413Z,1002.45
2016-02-05T08:16:01.416Z,1002.45
2016-02-05T08:17:01.418Z,1002.48
2016-02-05T08:18:01.405Z,1002.49
2016-02-05T08:19:01.424Z,1002.42
2016-02-05T08:20:01.413Z,1002.47
2016-02-05T08:21:01.401Z,1002.45
2016-02-05T08:22:01.405Z,1002.44
2016-02-05T08:23:01.407Z,1002.46
2016-02-05T08:24:01.409Z,1002.43
2016-02-05T08:25:01.412Z,1002.4
2016-02-05T08:26:01.415Z,1002.41
2016-02-05T08:27:01.418Z,1002.39
2016-02-05T08:28:01.406Z,1002.42
2016-02-05T08:29:01.409Z,1002.38
2016-02-05T08:30:01.412Z,1002.39
2016-02-05T08:31:01.400Z,1002.42
2016-02-05T08:32:01.403Z,1002.42
2016-02-05T08:33:01.406Z,1002.41
2016-02-05T08:34:01.408Z,1002.44
2016-02-05T08:35:01.411Z,1002.38
2016-02-05T08:36:01.414Z,1002.41
2016-02-05T08:37:01.401Z,1002.45
2016-02-05T08:38:01.419Z,1002.42
2016-02-05T08:39:01.407Z,1002.39
2016-02-05T08:40:01.410Z,1002.41
2016-02-05T08:41:01.413Z,1002.42
2016-02-05T08:42:01.400Z,1002.43
2016-02-05T08:43:01.402Z,1002.43
2016-02-05T08:44:01.436Z,1002.43
2016-02-05T08:45:01.408Z,1002.53
2016-02-05T08:46:01.411Z,1002.45
2016-02-05T08:47:01.413Z,1002.45
2016-02-05T08:48:01.402Z,1002.51
2016-02-05T08:49:01.405Z,1002.5
2016-02-05T08:50:01.408Z,1002.48
2016-02-05T08:51:01.395Z,1002.51
2016-02-05T08:52:01.445Z,1002.51
2016-02-05T08:53:01.402Z,1002.49
2016-02-05T08:54:01.405Z,1002.52
2016-02-05T08:55:01.408Z,1002.5
2016-02-05T08:56:01.411Z,1002.54
2016-02-05T08:57:01.413Z,1002.55
2016-02-05T08:58:01.431Z,1002.56
2016-02-05T08:59:01.418Z,1002.57
2016-02-05T09:00:01.421Z,1002.58
2016-02-05T09:01:01.412Z,1002.55
2016-02-05T09:02:01.415Z,1002.53
2016-02-05T09:03:01.418Z,1002.56
2016-02-05T09:04:01.420Z,1002.58
2016-02-05T09:05:01.439Z,1002.56
2016-02-05T09:06:01.413Z,1002.58
2016-02-05T09:07:01.416Z,1002.6
2016-02-05T09:08:01.418Z,1002.57
2016-02-05T09:09:01.421Z,1002.55
2016-02-05T09:10:01.409Z,1002.63
2016-02-05T09:11:01.411Z,1002.57
2016-02-05T09:12:01.413Z,1002.58
2016-02-05T09:13:01.419Z,1002.62
2016-02-05T09:14:01.424Z,1002.63
2016-02-05T09:15:01.410Z,1002.62
2016-02-05T09:16:01.415Z,1002.63
2016-02-05T09:17:01.419Z,1002.63
2016-02-05T09:18:01.421Z,1002.63
2016-02-05T09:19:01.424Z,1002.66
2016-02-05T09:20:01.418Z,1002.61
2016-02-05T09:21:01.421Z,1002.65
2016-02-05T09:22:01.440Z,1002.69
2016-02-05T09:23:01.426Z,1002.65
2016-02-05T09:24:01.445Z,1002.62
2016-02-05T09:25:01.463Z,1002.64
2016-02-05T09:26:01.422Z,1002.64
2016-02-05T09:27:01.441Z,1002.6
2016-02-05T09:28:01.444Z,1002.59
2016-02-05T09:29:01.446Z,1002.63
2016-02-05T09:30:01.433Z,1002.62
2016-02-05T09:31:01.435Z,1002.67
2016-02-05T09:32:01.438Z,1002.64
2016-02-05T09:33:01.441Z,1002.63
2016-02-05T09:34:01.444Z,1002.57
2016-02-05T09:35:01.446Z,1002.61
2016-02-05T09:36:01.450Z,1002.62
2016-02-05T09:37:01.452Z,1002.63
2016-02-05T09:38:01.455Z,1002.6
2016-02-05T09:39:01.442Z,1002.65
2016-02-05T09:40:01.445Z,1002.66
2016-02-05T09:41:01.463Z,1002.61
2016-02-05T09:42:01.450Z,1002.63
2016-02-05T09:43:01.453Z,1002.62
2016-02-05T09:44:01.470Z,1002.57
2016-02-05T09:45:01.458Z,1002.56
2016-02-05T09:46:01.462Z,1002.57
2016-02-05T09:47:01.465Z,1002.61
2016-02-05T09:48:01.467Z,1002.57
2016-02-05T09:49:01.458Z,1002.53
2016-02-05T09:50:01.476Z,1002.56
2016-02-05T09:51:01.462Z,1002.5
2016-02-05T09:52:01.465Z,1002.51
2016-02-05T09:53:01.468Z,1002.48
2016-02-05T09:54:01.488Z,1002.49
2016-02-05T09:55:01.475Z,1002.43
2016-02-05T09:56:01.477Z,1002.37
2016-02-05T09:57:01.480Z,1002.35
2016-02-05T09:58:01.483Z,1002.38
2016-02-05T09:59:01.487Z,1002.35
2016-02-05T10:00:01.489Z,1002.35
2016-02-05T10:01:01.492Z,1002.33
2016-02-05T10:02:01.495Z,1002.37
2016-02-05T10:03:01.481Z,1002.34
2016-02-05T10:04:01.485Z,1002.42
2016-02-05T10:05:01.504Z,1002.39
2016-02-05T10:06:01.491Z,1002.41
2016-02-05T10:07:01.494Z,1002.39
2016-02-05T10:08:01.529Z,1002.37
2016-02-05T10:09:01.515Z,1002.42
2016-02-05T10:10:01.518Z,1002.4
2016-02-05T10:11:01.521Z,1002.42
2016-02-05T10:12:01.523Z,1002.44
2016-02-05T10:13:01.510Z,1002.45
2016-02-05T10:14:01.513Z,1002.44
2016-02-05T10:15:01.531Z,1002.44
2016-02-05T10:16:01.520Z,1002.44
2016-02-05T10:17:01.554Z,1002.39
2016-02-05T10:18:01.522Z,1002.4
2016-02-05T10:19:01.514Z,1002.38
2016-02-05T10:20:01.517Z,1002.35
2016-02-05T10:21:01.519Z,1002.33
2016-02-05T10:22:01.522Z,1002.3
2016-02-05T10:23:01.525Z,1002.28
2016-02-05T10:24:01.528Z,1002.27
2016-02-05T10:25:01.530Z,1002.27
2016-02-05T10:26:01.548Z,1002.25
2016-02-05T10:27:01.535Z,1002.22
2016-02-05T10:28:01.539Z,1002.27
2016-02-05T10:29:01.541Z,1002.21
2016-02-05T10:30:01.544Z,1002.21
2016-02-05T10:31:01.546Z,1002.2
2016-02-05T10:32:01.549Z,1002.13
2016-02-05T10:33:01.552Z,1002.13
2016-02-05T10:34:01.542Z,1002.08
2016-02-05T10:35:01.544Z,1002.08
2016-02-05T10:36:01.563Z,1002.01
2016-02-05T10:37:01.550Z,1002.04
2016-02-05T10:38:01.553Z,1002.06
2016-02-05T10:39:01.557Z,1002.01
2016-02-05T10:40:01.560Z,1002.05
2016-02-05T10:41:01.563Z,1002
2016-02-05T10:42:01.565Z,1002.03
2016-02-05T10:43:01.568Z,1002.03
2016-02-05T10:44:01.571Z,1002.03
2016-02-05T10:45:01.573Z,1002.02
2016-02-05T10:46:01.576Z,1001.99
2016-02-05T10:47:01.579Z,1001.97
2016-02-05T10:48:01.581Z,1001.95
2016-02-05T10:49:01.584Z,1001.95
2016-02-05T10:50:01.587Z,1001.98
2016-02-05T10:51:01.604Z,1001.98
2016-02-05T10:52:01.607Z,1001.97
2016-02-05T10:53:01.595Z,1001.94
2016-02-05T10:54:01.597Z,1001.88
2016-02-05T10:55:01.600Z,1001.83
2016-02-05T10:56:01.603Z,1001.84
2016-02-05T10:57:01.621Z,1001.83
2016-02-05T10:58:01.608Z,1001.79
2016-02-05T10:59:01.612Z,1001.8
2016-02-05T11:00:01.630Z,1001.8
2016-02-05T11:01:01.632Z,1001.76
2016-02-05T11:02:01.635Z,1001.75
2016-02-05T11:03:01.625Z,1001.72
2016-02-05T11:04:01.627Z,1001.7
2016-02-05T11:05:01.630Z,1001.7
2016-02-05T11:06:01.633Z,1001.66
2016-02-05T11:07:01.650Z,1001.69
2016-02-05T11:08:01.638Z,1001.63
2016-02-05T11:09:01.640Z,1001.65
2016-02-05T11:10:01.643Z,1001.65
2016-02-05T11:11:01.661Z,1001.63
2016-02-05T11:12:01.650Z,1001.61
2016-02-05T11:13:01.652Z,1001.67
2016-02-05T11:14:01.670Z,1001.63
2016-02-05T11:15:01.673Z,1001.58
2016-02-05T11:16:01.675Z,1001.54
2016-02-05T11:17:01.696Z,1001.56
2016-02-05T11:18:01.682Z,1001.53
2016-02-05T11:19:01.687Z,1001.55
2016-02-05T11:20:01.690Z,1001.5
2016-02-05T11:21:01.692Z,1001.5
2016-02-05T11:22:01.711Z,1001.46
2016-02-05T11:23:01.697Z,1001.41
2016-02-05T11:24:01.700Z,1001.38
2016-02-05T11:25:01.704Z,1001.3
2016-02-05T11:26:01.707Z,1001.33
2016-02-05T11:27:01.709Z,1001.32
2016-02-05T11:28:01.712Z,1001.32
2016-02-05T11:29:01.715Z,1001.27
2016-02-05T11:30:01.717Z,1001.26
2016-02-05T11:31:01.720Z,1001.17
2016-02-05T11:32:01.725Z,1001.18
2016-02-05T11:33:01.775Z,1001.15
2016-02-05T11:34:01.761Z,1001.17
2016-02-05T11:35:01.749Z,1001.19
2016-02-05T11:36:01.751Z,1001.15
2016-02-05T11:37:01.775Z,1001.16
2016-02-05T11:38:01.745Z,1001.09
2016-02-05T11:39:01.764Z,1001.06
2016-02-05T11:40:01.768Z,1001.09
2016-02-05T11:41:01.770Z,1001.03
2016-02-05T11:42:01.773Z,1000.99
2016-02-05T11:43:01.775Z,1000.98
2016-02-05T11:44:01.778Z,1000.99
2016-02-05T11:45:01.781Z,1000.98
2016-02-05T11:46:01.799Z,1000.94
2016-02-05T11:47:01.801Z,1000.91
2016-02-05T11:48:01.804Z,1000.92
2016-02-05T11:49:01.791Z,1000.88
2016-02-05T11:50:01.809Z,1000.89
2016-02-05T11:51:01.812Z,1000.83
2016-02-05T11:52:01.815Z,1000.89
2016-02-05T11:53:01.817Z,1000.86
2016-02-05T11:54:01.820Z,1000.87
2016-02-05T11:55:01.822Z,1000.82
2016-02-05T11:56:01.825Z,1000.83
2016-02-05T11:57:01.829Z,1000.78
2016-02-05T11:58:01.831Z,1000.74
2016-02-05T11:59:01.834Z,1000.74
2016-02-05T12:00:01.837Z,1000.8
2016-02-05T12:01:01.839Z,1000.78
2016-02-05T12:02:01.843Z,1000.76
2016-02-05T12:03:01.846Z,1000.8
2016-02-05T12:04:01.865Z,1000.81
2016-02-05T12:05:01.870Z,1000.72
2016-02-05T12:06:01.856Z,1000.66
2016-02-05T12:07:01.875Z,1000.63
2016-02-05T12:08:01.878Z,1000.63
2016-02-05T12:09:01.881Z,1000.62